sensor_id;sensor_type;location;lat;lon;timestamp;pressure;altitude;pressure_sealevel;temperature
16956;BMP180;8594;52.052;8.354;2023-03-21T00:00:38;100708.00;;;12.50
16956;BMP180;8594;52.052;8.354;2023-03-21T00:03:06;100702.00;;;12.20
16956;BMP180;8594;52.052;8.354;2023-03-21T00:05:33;100708.00;;;12.40
16956;BMP180;8594;52.052;8.354;2023-03-21T00:08:00;100713.00;;;12.60
16956;BMP180;8594;52.052;8.354;2023-03-21T00:10:28;100696.00;;;12.10
16956;BMP180;8594;52.052;8.354;2023-03-21T00:12:55;100692.00;;;12.40
16956;BMP180;8594;52.052;8.354;2023-03-21T00:15:24;100700.00;;;12.40
16956;BMP180;8594;52.052;8.354;2023-03-21T00:17:54;100698.00;;;12.50
16956;BMP180;8594;52.052;8.354;2023-03-21T00:20:23;100694.00;;;12.60
16956;BMP180;8594;52.052;8.354;2023-03-21T00:22:50;100701.00;;;12.60
16956;BMP180;8594;52.052;8.354;2023-03-21T00:25:17;100692.00;;;12.80
16956;BMP180;8594;52.052;8.354;2023-03-21T00:27:44;100695.00;;;12.50
16956;BMP180;8594;52.052;8.354;2023-03-21T00:30:12;100689.00;;;12.70
16956;BMP180;8594;52.052;8.354;2023-03-21T00:32:39;100688.00;;;12.60
16956;BMP180;8594;52.052;8.354;2023-03-21T00:35:08;100683.00;;;12.40
16956;BMP180;8594;52.052;8.354;2023-03-21T00:37:35;100679.00;;;12.60
16956;BMP180;8594;52.052;8.354;2023-03-21T00:40:03;100681.00;;;12.40
16956;BMP180;8594;52.052;8.354;2023-03-21T00:42:34;100683.00;;;12.40
16956;BMP180;8594;52.052;8.354;2023-03-21T00:45:01;100679.00;;;12.60
16956;BMP180;8594;52.052;8.354;2023-03-21T00:47:28;100681.00;;;12.60
16956;BMP180;8594;52.052;8.354;2023-03-21T00:49:54;100672.00;;;12.70
16956;BMP180;8594;52.052;8.354;2023-03-21T00:52:23;100665.00;;;12.40
16956;BMP180;8594;52.052;8.354;2023-03-21T00:54:50;100668.00;;;12.40
16956;BMP180;8594;52.052;8.354;2023-03-21T00:57:16;100663.00;;;12.50
16956;BMP180;8594;52.052;8.354;2023-03-21T00:59:44;100665.00;;;12.50
16956;BMP180;8594;52.052;8.354;2023-03-21T01:02:11;100656.00;;;12.30
16956;BMP180;8594;52.052;8.354;2023-03-21T01:04:51;100654.00;;;12.50
16956;BMP180;8594;52.052;8.354;2023-03-21T01:07:18;100652.00;;;12.40
16956;BMP180;8594;52.052;8.354;2023-03-21T01:09:46;100648.00;;;12.00
16956;BMP180;8594;52.052;8.354;2023-03-21T01:12:13;100655.00;;;12.10
16956;BMP180;8594;52.052;8.354;2023-03-21T01:14:40;100653.00;;;12.50
16956;BMP180;8594;52.052;8.354;2023-03-21T01:17:08;100653.00;;;12.50
16956;BMP180;8594;52.052;8.354;2023-03-21T01:19:34;100652.00;;;12.20
16956;BMP180;8594;52.052;8.354;2023-03-21T01:22:01;100648.00;;;12.40
16956;BMP180;8594;52.052;8.354;2023-03-21T01:24:28;100649.00;;;12.40
16956;BMP180;8594;52.052;8.354;2023-03-21T01:26:57;100645.00;;;12.40
16956;BMP180;8594;52.052;8.354;2023-03-21T01:29:23;100645.00;;;12.70
16956;BMP180;8594;52.052;8.354;2023-03-21T01:31:50;100643.00;;;12.30
16956;BMP180;8594;52.052;8.354;2023-03-21T01:34:17;100651.00;;;12.30
16956;BMP180;8594;52.052;8.354;2023-03-21T01:36:44;100648.00;;;12.50
16956;BMP180;8594;52.052;8.354;2023-03-21T01:39:10;100635.00;;;12.20
16956;BMP180;8594;52.052;8.354;2023-03-21T01:41:41;100640.00;;;12.50
16956;BMP180;8594;52.052;8.354;2023-03-21T01:44:14;100635.00;;;12.40
16956;BMP180;8594;52.052;8.354;2023-03-21T01:46:44;100628.00;;;12.60
16956;BMP180;8594;52.052;8.354;2023-03-21T01:49:18;100632.00;;;12.60
16956;BMP180;8594;52.052;8.354;2023-03-21T01:51:53;100633.00;;;12.70
16956;BMP180;8594;52.052;8.354;2023-03-21T01:54:25;100630.00;;;12.60
16956;BMP180;8594;52.052;8.354;2023-03-21T01:56:57;100624.00;;;12.80
16956;BMP180;8594;52.052;8.354;2023-03-21T01:59:30;100632.00;;;12.50
16956;BMP180;8594;52.052;8.354;2023-03-21T02:02:04;100623.00;;;12.50
16956;BMP180;8594;52.052;8.354;2023-03-21T02:04:36;100625.00;;;12.40
16956;BMP180;8594;52.052;8.354;2023-03-21T02:07:08;100626.00;;;12.60
16956;BMP180;8594;52.052;8.354;2023-03-21T02:09:41;100619.00;;;12.80
16956;BMP180;8594;52.052;8.354;2023-03-21T02:12:10;100613.00;;;12.70
16956;BMP180;8594;52.052;8.354;2023-03-21T02:14:38;100617.00;;;12.70
16956;BMP180;8594;52.052;8.354;2023-03-21T02:17:14;100608.00;;;12.60
16956;BMP180;8594;52.052;8.354;2023-03-21T02:20:30;100600.00;;;12.50
16956;BMP180;8594;52.052;8.354;2023-03-21T02:23:59;100597.00;;;12.50
16956;BMP180;8594;52.052;8.354;2023-03-21T02:26:53;100603.00;;;12.60
16956;BMP180;8594;52.052;8.354;2023-03-21T02:30:00;100599.00;;;12.70
16956;BMP180;8594;52.052;8.354;2023-03-21T02:32:51;100595.00;;;12.60
16956;BMP180;8594;52.052;8.354;2023-03-21T02:35:39;100588.00;;;12.70
16956;BMP180;8594;52.052;8.354;2023-03-21T02:38:17;100600.00;;;12.50
16956;BMP180;8594;52.052;8.354;2023-03-21T02:40:55;100596.00;;;12.60
16956;BMP180;8594;52.052;8.354;2023-03-21T02:43:32;100586.00;;;12.70
16956;BMP180;8594;52.052;8.354;2023-03-21T02:46:09;100587.00;;;12.80
16956;BMP180;8594;52.052;8.354;2023-03-21T02:48:44;100590.00;;;12.70
16956;BMP180;8594;52.052;8.354;2023-03-21T02:51:17;100594.00;;;12.70
16956;BMP180;8594;52.052;8.354;2023-03-21T02:53:52;100592.00;;;12.60
16956;BMP180;8594;52.052;8.354;2023-03-21T02:56:23;100589.00;;;12.80
16956;BMP180;8594;52.052;8.354;2023-03-21T02:58:51;100587.00;;;12.80
16956;BMP180;8594;52.052;8.354;2023-03-21T03:01:18;100586.00;;;12.60
16956;BMP180;8594;52.052;8.354;2023-03-21T03:03:45;100591.00;;;12.70
16956;BMP180;8594;52.052;8.354;2023-03-21T03:06:17;100587.00;;;12.50
16956;BMP180;8594;52.052;8.354;2023-03-21T03:09:07;100594.00;;;12.60
16956;BMP180;8594;52.052;8.354;2023-03-21T03:11:42;100592.00;;;12.50
16956;BMP180;8594;52.052;8.354;2023-03-21T03:14:37;100583.00;;;12.40
16956;BMP180;8594;52.052;8.354;2023-03-21T03:17:20;100593.00;;;12.60
16956;BMP180;8594;52.052;8.354;2023-03-21T03:20:08;100590.00;;;12.20
16956;BMP180;8594;52.052;8.354;2023-03-21T03:22:46;100581.00;;;12.50
16956;BMP180;8594;52.052;8.354;2023-03-21T03:25:20;100573.00;;;12.40
16956;BMP180;8594;52.052;8.354;2023-03-21T03:27:50;100583.00;;;12.60
16956;BMP180;8594;52.052;8.354;2023-03-21T03:30:19;100570.00;;;12.60
16956;BMP180;8594;52.052;8.354;2023-03-21T03:32:52;100581.00;;;12.60
16956;BMP180;8594;52.052;8.354;2023-03-21T03:35:21;100576.00;;;12.40
16956;BMP180;8594;52.052;8.354;2023-03-21T03:37:53;100571.00;;;12.70
16956;BMP180;8594;52.052;8.354;2023-03-21T03:40:28;100568.00;;;12.60
16956;BMP180;8594;52.052;8.354;2023-03-21T03:43:01;100566.00;;;12.60
16956;BMP180;8594;52.052;8.354;2023-03-21T03:45:37;100561.00;;;12.70
16956;BMP180;8594;52.052;8.354;2023-03-21T03:48:17;100561.00;;;12.70
16956;BMP180;8594;52.052;8.354;2023-03-21T03:50:55;100563.00;;;12.70
16956;BMP180;8594;52.052;8.354;2023-03-21T03:53:29;100560.00;;;12.80
16956;BMP180;8594;52.052;8.354;2023-03-21T03:56:06;100566.00;;;13.10
16956;BMP180;8594;52.052;8.354;2023-03-21T03:58:35;100562.00;;;12.90
16956;BMP180;8594;52.052;8.354;2023-03-21T04:01:05;100559.00;;;12.90
16956;BMP180;8594;52.052;8.354;2023-03-21T04:03:35;100542.00;;;12.90
16956;BMP180;8594;52.052;8.354;2023-03-21T04:06:03;100556.00;;;12.90
16956;BMP180;8594;52.052;8.354;2023-03-21T04:08:31;100553.00;;;13.00
16956;BMP180;8594;52.052;8.354;2023-03-21T04:10:57;100550.00;;;13.10
16956;BMP180;8594;52.052;8.354;2023-03-21T04:13:26;100542.00;;;13.10
16956;BMP180;8594;52.052;8.354;2023-03-21T04:15:53;100547.00;;;13.00
16956;BMP180;8594;52.052;8.354;2023-03-21T04:18:20;100551.00;;;13.10
16956;BMP180;8594;52.052;8.354;2023-03-21T04:20:48;100541.00;;;12.90
16956;BMP180;8594;52.052;8.354;2023-03-21T04:23:16;100546.00;;;12.80
16956;BMP180;8594;52.052;8.354;2023-03-21T04:25:45;100540.00;;;12.70
16956;BMP180;8594;52.052;8.354;2023-03-21T04:28:12;100548.00;;;12.50
16956;BMP180;8594;52.052;8.354;2023-03-21T04:30:40;100546.00;;;12.80
16956;BMP180;8594;52.052;8.354;2023-03-21T04:33:07;100543.00;;;12.80
16956;BMP180;8594;52.052;8.354;2023-03-21T04:35:34;100534.00;;;12.60
16956;BMP180;8594;52.052;8.354;2023-03-21T04:38:02;100545.00;;;12.30
16956;BMP180;8594;52.052;8.354;2023-03-21T04:40:29;100539.00;;;12.30
16956;BMP180;8594;52.052;8.354;2023-03-21T04:42:56;100541.00;;;12.70
16956;BMP180;8594;52.052;8.354;2023-03-21T04:45:25;100533.00;;;12.90
16956;BMP180;8594;52.052;8.354;2023-03-21T04:47:53;100529.00;;;13.00
16956;BMP180;8594;52.052;8.354;2023-03-21T04:50:21;100525.00;;;13.00
16956;BMP180;8594;52.052;8.354;2023-03-21T04:52:48;100527.00;;;12.90
16956;BMP180;8594;52.052;8.354;2023-03-21T04:55:16;100516.00;;;12.70
16956;BMP180;8594;52.052;8.354;2023-03-21T04:57:46;100520.00;;;12.70
16956;BMP180;8594;52.052;8.354;2023-03-21T05:00:15;100524.00;;;12.70
16956;BMP180;8594;52.052;8.354;2023-03-21T05:02:42;100523.00;;;13.00
16956;BMP180;8594;52.052;8.354;2023-03-21T05:05:10;100516.00;;;12.80
16956;BMP180;8594;52.052;8.354;2023-03-21T05:07:38;100511.00;;;12.80
16956;BMP180;8594;52.052;8.354;2023-03-21T05:10:09;100520.00;;;13.00
16956;BMP180;8594;52.052;8.354;2023-03-21T05:12:36;100518.00;;;12.90
16956;BMP180;8594;52.052;8.354;2023-03-21T05:15:04;100518.00;;;12.90
16956;BMP180;8594;52.052;8.354;2023-03-21T05:17:32;100517.00;;;13.00
16956;BMP180;8594;52.052;8.354;2023-03-21T05:19:58;100516.00;;;12.90
16956;BMP180;8594;52.052;8.354;2023-03-21T05:22:27;100521.00;;;13.00
16956;BMP180;8594;52.052;8.354;2023-03-21T05:24:54;100524.00;;;13.00
16956;BMP180;8594;52.052;8.354;2023-03-21T05:27:22;100519.00;;;13.00
16956;BMP180;8594;52.052;8.354;2023-03-21T05:30:03;100526.00;;;13.00
16956;BMP180;8594;52.052;8.354;2023-03-21T05:32:31;100523.00;;;13.10
16956;BMP180;8594;52.052;8.354;2023-03-21T05:34:58;100519.00;;;13.00
16956;BMP180;8594;52.052;8.354;2023-03-21T05:37:26;100516.00;;;13.20
16956;BMP180;8594;52.052;8.354;2023-03-21T05:39:53;100520.00;;;13.10
16956;BMP180;8594;52.052;8.354;2023-03-21T05:42:21;100522.00;;;13.10
16956;BMP180;8594;52.052;8.354;2023-03-21T05:44:48;100511.00;;;12.80
16956;BMP180;8594;52.052;8.354;2023-03-21T05:47:16;100516.00;;;12.90
16956;BMP180;8594;52.052;8.354;2023-03-21T05:49:44;100514.00;;;12.70
16956;BMP180;8594;52.052;8.354;2023-03-21T05:52:12;100516.00;;;12.70
16956;BMP180;8594;52.052;8.354;2023-03-21T05:54:40;100521.00;;;13.00
16956;BMP180;8594;52.052;8.354;2023-03-21T05:57:07;100514.00;;;13.10
16956;BMP180;8594;52.052;8.354;2023-03-21T05:59:34;100519.00;;;12.90
16956;BMP180;8594;52.052;8.354;2023-03-21T06:02:01;100516.00;;;12.90
16956;BMP180;8594;52.052;8.354;2023-03-21T06:04:28;100517.00;;;12.60
16956;BMP180;8594;52.052;8.354;2023-03-21T06:06:55;100514.00;;;12.60
16956;BMP180;8594;52.052;8.354;2023-03-21T06:09:22;100511.00;;;13.00
16956;BMP180;8594;52.052;8.354;2023-03-21T06:11:55;100506.00;;;13.10
16956;BMP180;8594;52.052;8.354;2023-03-21T06:14:23;100507.00;;;13.10
16956;BMP180;8594;52.052;8.354;2023-03-21T06:16:51;100503.00;;;13.20
16956;BMP180;8594;52.052;8.354;2023-03-21T06:19:19;100505.00;;;13.10
16956;BMP180;8594;52.052;8.354;2023-03-21T06:21:46;100508.00;;;13.20
16956;BMP180;8594;52.052;8.354;2023-03-21T06:24:13;100514.00;;;13.40
16956;BMP180;8594;52.052;8.354;2023-03-21T06:26:40;100517.00;;;13.40
16956;BMP180;8594;52.052;8.354;2023-03-21T06:29:09;100516.00;;;13.40
16956;BMP180;8594;52.052;8.354;2023-03-21T06:31:36;100509.00;;;12.90
16956;BMP180;8594;52.052;8.354;2023-03-21T06:34:03;100512.00;;;13.30
16956;BMP180;8594;52.052;8.354;2023-03-21T06:36:30;100521.00;;;13.30
16956;BMP180;8594;52.052;8.354;2023-03-21T06:38:57;100524.00;;;13.10
16956;BMP180;8594;52.052;8.354;2023-03-21T06:41:24;100521.00;;;13.40
16956;BMP180;8594;52.052;8.354;2023-03-21T06:43:51;100531.00;;;13.50
16956;BMP180;8594;52.052;8.354;2023-03-21T06:46:19;100531.00;;;13.30
16956;BMP180;8594;52.052;8.354;2023-03-21T06:48:46;100532.00;;;13.40
16956;BMP180;8594;52.052;8.354;2023-03-21T06:51:14;100531.00;;;13.20
16956;BMP180;8594;52.052;8.354;2023-03-21T06:53:41;100529.00;;;13.40
16956;BMP180;8594;52.052;8.354;2023-03-21T06:56:10;100533.00;;;13.30
16956;BMP180;8594;52.052;8.354;2023-03-21T06:58:39;100531.00;;;13.40
16956;BMP180;8594;52.052;8.354;2023-03-21T07:01:06;100524.00;;;13.20
16956;BMP180;8594;52.052;8.354;2023-03-21T07:03:35;100528.00;;;13.50
16956;BMP180;8594;52.052;8.354;2023-03-21T07:06:08;100535.00;;;13.70
16956;BMP180;8594;52.052;8.354;2023-03-21T07:08:36;100528.00;;;13.60
16956;BMP180;8594;52.052;8.354;2023-03-21T07:11:03;100526.00;;;13.50
16956;BMP180;8594;52.052;8.354;2023-03-21T07:13:31;100525.00;;;13.50
16956;BMP180;8594;52.052;8.354;2023-03-21T07:15:58;100525.00;;;13.60
16956;BMP180;8594;52.052;8.354;2023-03-21T07:18:25;100521.00;;;13.50
16956;BMP180;8594;52.052;8.354;2023-03-21T07:20:54;100530.00;;;13.30
16956;BMP180;8594;52.052;8.354;2023-03-21T07:23:23;100526.00;;;13.70
16956;BMP180;8594;52.052;8.354;2023-03-21T07:25:51;100526.00;;;13.60
16956;BMP180;8594;52.052;8.354;2023-03-21T07:28:19;100526.00;;;13.50
16956;BMP180;8594;52.052;8.354;2023-03-21T07:30:52;100533.00;;;13.30
16956;BMP180;8594;52.052;8.354;2023-03-21T07:33:20;100527.00;;;13.30
16956;BMP180;8594;52.052;8.354;2023-03-21T07:35:48;100524.00;;;13.30
16956;BMP180;8594;52.052;8.354;2023-03-21T07:38:16;100529.00;;;13.50
16956;BMP180;8594;52.052;8.354;2023-03-21T07:40:44;100518.00;;;13.60
16956;BMP180;8594;52.052;8.354;2023-03-21T07:43:11;100527.00;;;13.30
16956;BMP180;8594;52.052;8.354;2023-03-21T07:45:38;100533.00;;;13.60
16956;BMP180;8594;52.052;8.354;2023-03-21T07:48:07;100527.00;;;13.40
16956;BMP180;8594;52.052;8.354;2023-03-21T07:50:34;100522.00;;;13.40
16956;BMP180;8594;52.052;8.354;2023-03-21T07:53:01;100531.00;;;13.20
16956;BMP180;8594;52.052;8.354;2023-03-21T07:55:30;100524.00;;;13.50
16956;BMP180;8594;52.052;8.354;2023-03-21T07:57:59;100534.00;;;13.60
16956;BMP180;8594;52.052;8.354;2023-03-21T08:00:26;100536.00;;;13.20
16956;BMP180;8594;52.052;8.354;2023-03-21T08:02:55;100540.00;;;13.10
16956;BMP180;8594;52.052;8.354;2023-03-21T08:05:24;100541.00;;;12.80
16956;BMP180;8594;52.052;8.354;2023-03-21T08:07:51;100542.00;;;13.10
16956;BMP180;8594;52.052;8.354;2023-03-21T08:10:19;100544.00;;;12.70
16956;BMP180;8594;52.052;8.354;2023-03-21T08:12:47;100536.00;;;13.20
16956;BMP180;8594;52.052;8.354;2023-03-21T08:15:15;100540.00;;;13.00
16956;BMP180;8594;52.052;8.354;2023-03-21T08:17:42;100544.00;;;13.10
16956;BMP180;8594;52.052;8.354;2023-03-21T08:20:13;100542.00;;;13.00
16956;BMP180;8594;52.052;8.354;2023-03-21T08:22:42;100543.00;;;12.90
16956;BMP180;8594;52.052;8.354;2023-03-21T08:25:11;100536.00;;;13.00
16956;BMP180;8594;52.052;8.354;2023-03-21T08:27:39;100538.00;;;13.20
16956;BMP180;8594;52.052;8.354;2023-03-21T08:30:10;100529.00;;;13.10
16956;BMP180;8594;52.052;8.354;2023-03-21T08:32:38;100543.00;;;13.10
16956;BMP180;8594;52.052;8.354;2023-03-21T08:35:07;100533.00;;;12.90
16956;BMP180;8594;52.052;8.354;2023-03-21T08:37:36;100539.00;;;13.20
16956;BMP180;8594;52.052;8.354;2023-03-21T08:40:03;100550.00;;;13.30
16956;BMP180;8594;52.052;8.354;2023-03-21T08:42:32;100538.00;;;13.40
16956;BMP180;8594;52.052;8.354;2023-03-21T08:45:00;100532.00;;;13.50
16956;BMP180;8594;52.052;8.354;2023-03-21T08:47:28;100544.00;;;13.40
16956;BMP180;8594;52.052;8.354;2023-03-21T08:49:57;100542.00;;;13.40
16956;BMP180;8594;52.052;8.354;2023-03-21T08:52:24;100538.00;;;13.50
16956;BMP180;8594;52.052;8.354;2023-03-21T08:54:51;100542.00;;;13.30
16956;BMP180;8594;52.052;8.354;2023-03-21T08:57:18;100533.00;;;13.10
16956;BMP180;8594;52.052;8.354;2023-03-21T08:59:45;100544.00;;;13.30
16956;BMP180;8594;52.052;8.354;2023-03-21T09:02:13;100543.00;;;13.10
16956;BMP180;8594;52.052;8.354;2023-03-21T09:04:42;100538.00;;;13.10
16956;BMP180;8594;52.052;8.354;2023-03-21T09:07:10;100534.00;;;12.90
16956;BMP180;8594;52.052;8.354;2023-03-21T09:09:40;100533.00;;;13.10
16956;BMP180;8594;52.052;8.354;2023-03-21T09:12:09;100530.00;;;13.00
16956;BMP180;8594;52.052;8.354;2023-03-21T09:14:36;100538.00;;;13.40
16956;BMP180;8594;52.052;8.354;2023-03-21T09:17:03;100527.00;;;13.00
16956;BMP180;8594;52.052;8.354;2023-03-21T09:19:30;100539.00;;;13.20
16956;BMP180;8594;52.052;8.354;2023-03-21T09:21:59;100526.00;;;13.30
16956;BMP180;8594;52.052;8.354;2023-03-21T09:24:26;100531.00;;;13.00
16956;BMP180;8594;52.052;8.354;2023-03-21T09:26:52;100530.00;;;13.30
16956;BMP180;8594;52.052;8.354;2023-03-21T09:29:19;100524.00;;;13.20
16956;BMP180;8594;52.052;8.354;2023-03-21T09:31:47;100522.00;;;13.40
16956;BMP180;8594;52.052;8.354;2023-03-21T09:34:14;100527.00;;;13.50
16956;BMP180;8594;52.052;8.354;2023-03-21T09:36:42;100527.00;;;13.60
16956;BMP180;8594;52.052;8.354;2023-03-21T09:39:14;100532.00;;;13.40
16956;BMP180;8594;52.052;8.354;2023-03-21T09:42:05;100530.00;;;13.20
16956;BMP180;8594;52.052;8.354;2023-03-21T09:44:50;100528.00;;;13.30
16956;BMP180;8594;52.052;8.354;2023-03-21T09:47:23;100526.00;;;13.20
16956;BMP180;8594;52.052;8.354;2023-03-21T09:49:58;100524.00;;;13.00
16956;BMP180;8594;52.052;8.354;2023-03-21T09:52:31;100528.00;;;13.20
16956;BMP180;8594;52.052;8.354;2023-03-21T09:55:02;100526.00;;;13.50
16956;BMP180;8594;52.052;8.354;2023-03-21T09:57:35;100526.00;;;13.30
16956;BMP180;8594;52.052;8.354;2023-03-21T10:00:09;100523.00;;;13.50
16956;BMP180;8594;52.052;8.354;2023-03-21T10:02:43;100523.00;;;13.50
16956;BMP180;8594;52.052;8.354;2023-03-21T10:05:17;100517.00;;;13.10
16956;BMP180;8594;52.052;8.354;2023-03-21T10:07:53;100513.00;;;13.50
16956;BMP180;8594;52.052;8.354;2023-03-21T10:10:27;100520.00;;;13.70
16956;BMP180;8594;52.052;8.354;2023-03-21T10:12:55;100520.00;;;13.40
16956;BMP180;8594;52.052;8.354;2023-03-21T10:15:27;100518.00;;;13.50
16956;BMP180;8594;52.052;8.354;2023-03-21T10:17:59;100511.00;;;13.40
16956;BMP180;8594;52.052;8.354;2023-03-21T10:20:30;100506.00;;;13.40
16956;BMP180;8594;52.052;8.354;2023-03-21T10:23:02;100507.00;;;13.70
16956;BMP180;8594;52.052;8.354;2023-03-21T10:25:33;100507.00;;;13.80
16956;BMP180;8594;52.052;8.354;2023-03-21T10:28:04;100505.00;;;13.70
16956;BMP180;8594;52.052;8.354;2023-03-21T10:30:39;100503.00;;;13.90
16956;BMP180;8594;52.052;8.354;2023-03-21T10:33:12;100498.00;;;13.70
16956;BMP180;8594;52.052;8.354;2023-03-21T10:35:44;100501.00;;;13.40
16956;BMP180;8594;52.052;8.354;2023-03-21T10:38:16;100498.00;;;13.60
16956;BMP180;8594;52.052;8.354;2023-03-21T10:40:45;100506.00;;;13.70
16956;BMP180;8594;52.052;8.354;2023-03-21T10:43:31;100491.00;;;13.50
16956;BMP180;8594;52.052;8.354;2023-03-21T10:46:10;100491.00;;;13.70
16956;BMP180;8594;52.052;8.354;2023-03-21T10:48:39;100496.00;;;13.70
16956;BMP180;8594;52.052;8.354;2023-03-21T10:51:18;100483.00;;;13.60
16956;BMP180;8594;52.052;8.354;2023-03-21T10:53:51;100500.00;;;14.10
16956;BMP180;8594;52.052;8.354;2023-03-21T10:56:25;100494.00;;;14.00
16956;BMP180;8594;52.052;8.354;2023-03-21T10:58:56;100501.00;;;14.20
16956;BMP180;8594;52.052;8.354;2023-03-21T11:01:29;100492.00;;;14.00
16956;BMP180;8594;52.052;8.354;2023-03-21T11:04:00;100486.00;;;14.00
16956;BMP180;8594;52.052;8.354;2023-03-21T11:06:35;100490.00;;;13.80
16956;BMP180;8594;52.052;8.354;2023-03-21T11:09:08;100488.00;;;14.00
16956;BMP180;8594;52.052;8.354;2023-03-21T11:11:48;100485.00;;;14.00
16956;BMP180;8594;52.052;8.354;2023-03-21T11:14:36;100487.00;;;13.90
16956;BMP180;8594;52.052;8.354;2023-03-21T11:17:20;100477.00;;;14.10
16956;BMP180;8594;52.052;8.354;2023-03-21T11:19:48;100482.00;;;14.10
16956;BMP180;8594;52.052;8.354;2023-03-21T11:22:18;100484.00;;;14.20
16956;BMP180;8594;52.052;8.354;2023-03-21T11:24:50;100477.00;;;14.20
16956;BMP180;8594;52.052;8.354;2023-03-21T11:27:19;100474.00;;;14.00
16956;BMP180;8594;52.052;8.354;2023-03-21T11:29:49;100479.00;;;14.20
16956;BMP180;8594;52.052;8.354;2023-03-21T11:32:23;100474.00;;;14.40
16956;BMP180;8594;52.052;8.354;2023-03-21T11:34:56;100473.00;;;14.20
16956;BMP180;8594;52.052;8.354;2023-03-21T11:37:27;100463.00;;;14.00
16956;BMP180;8594;52.052;8.354;2023-03-21T11:39:59;100461.00;;;14.30
16956;BMP180;8594;52.052;8.354;2023-03-21T11:42:41;100464.00;;;14.30
16956;BMP180;8594;52.052;8.354;2023-03-21T11:45:15;100460.00;;;14.10
16956;BMP180;8594;52.052;8.354;2023-03-21T11:47:44;100454.00;;;14.20
16956;BMP180;8594;52.052;8.354;2023-03-21T11:50:30;100458.00;;;14.00
16956;BMP180;8594;52.052;8.354;2023-03-21T11:53:25;100447.00;;;14.10
16956;BMP180;8594;52.052;8.354;2023-03-21T11:56:17;100450.00;;;14.40
16956;BMP180;8594;52.052;8.354;2023-03-21T11:59:10;100439.00;;;14.10
16956;BMP180;8594;52.052;8.354;2023-03-21T12:01:59;100437.00;;;14.40
16956;BMP180;8594;52.052;8.354;2023-03-21T12:04:39;100434.00;;;14.40
16956;BMP180;8594;52.052;8.354;2023-03-21T12:07:25;100434.00;;;14.20
16956;BMP180;8594;52.052;8.354;2023-03-21T12:10:10;100426.00;;;13.90
16956;BMP180;8594;52.052;8.354;2023-03-21T12:12:52;100424.00;;;14.20
16956;BMP180;8594;52.052;8.354;2023-03-21T12:15:30;100423.00;;;14.10
16956;BMP180;8594;52.052;8.354;2023-03-21T12:18:08;100413.00;;;14.00
16956;BMP180;8594;52.052;8.354;2023-03-21T12:20:45;100417.00;;;13.90
16956;BMP180;8594;52.052;8.354;2023-03-21T12:23:33;100414.00;;;14.00
16956;BMP180;8594;52.052;8.354;2023-03-21T12:26:17;100411.00;;;14.10
16956;BMP180;8594;52.052;8.354;2023-03-21T12:29:07;100400.00;;;14.20
16956;BMP180;8594;52.052;8.354;2023-03-21T12:31:54;100404.00;;;14.30
16956;BMP180;8594;52.052;8.354;2023-03-21T12:34:52;100398.00;;;14.50
16956;BMP180;8594;52.052;8.354;2023-03-21T12:37:32;100398.00;;;14.50
16956;BMP180;8594;52.052;8.354;2023-03-21T12:40:12;100390.00;;;14.30
16956;BMP180;8594;52.052;8.354;2023-03-21T12:43:02;100388.00;;;14.40
16956;BMP180;8594;52.052;8.354;2023-03-21T12:45:37;100391.00;;;14.60
16956;BMP180;8594;52.052;8.354;2023-03-21T12:48:17;100390.00;;;14.40
16956;BMP180;8594;52.052;8.354;2023-03-21T12:50:51;100387.00;;;14.60
16956;BMP180;8594;52.052;8.354;2023-03-21T12:53:47;100386.00;;;14.70
16956;BMP180;8594;52.052;8.354;2023-03-21T12:56:23;100383.00;;;14.60
16956;BMP180;8594;52.052;8.354;2023-03-21T12:58:57;100380.00;;;14.50
16956;BMP180;8594;52.052;8.354;2023-03-21T13:01:28;100374.00;;;14.40
16956;BMP180;8594;52.052;8.354;2023-03-21T13:04:27;100382.00;;;14.60
16956;BMP180;8594;52.052;8.354;2023-03-21T13:07:01;100381.00;;;14.50
16956;BMP180;8594;52.052;8.354;2023-03-21T13:09:35;100377.00;;;14.70
16956;BMP180;8594;52.052;8.354;2023-03-21T13:12:18;100374.00;;;14.60
16956;BMP180;8594;52.052;8.354;2023-03-21T13:15:04;100366.00;;;14.70
16956;BMP180;8594;52.052;8.354;2023-03-21T13:17:40;100364.00;;;14.10
16956;BMP180;8594;52.052;8.354;2023-03-21T13:20:21;100357.00;;;14.50
16956;BMP180;8594;52.052;8.354;2023-03-21T13:22:52;100361.00;;;14.60
16956;BMP180;8594;52.052;8.354;2023-03-21T13:25:21;100354.00;;;15.10
16956;BMP180;8594;52.052;8.354;2023-03-21T13:27:52;100342.00;;;14.80
16956;BMP180;8594;52.052;8.354;2023-03-21T13:30:23;100341.00;;;14.90
16956;BMP180;8594;52.052;8.354;2023-03-21T13:33:04;100353.00;;;14.70
16956;BMP180;8594;52.052;8.354;2023-03-21T13:35:35;100352.00;;;14.70
16956;BMP180;8594;52.052;8.354;2023-03-21T13:38:10;100350.00;;;15.00
16956;BMP180;8594;52.052;8.354;2023-03-21T13:40:43;100338.00;;;14.80
16956;BMP180;8594;52.052;8.354;2023-03-21T13:43:33;100337.00;;;15.30
16956;BMP180;8594;52.052;8.354;2023-03-21T13:46:07;100337.00;;;15.30
16956;BMP180;8594;52.052;8.354;2023-03-21T13:48:55;100332.00;;;14.90
16956;BMP180;8594;52.052;8.354;2023-03-21T13:51:44;100321.00;;;15.00
16956;BMP180;8594;52.052;8.354;2023-03-21T13:54:23;100318.00;;;15.00
16956;BMP180;8594;52.052;8.354;2023-03-21T13:56:57;100322.00;;;15.30
16956;BMP180;8594;52.052;8.354;2023-03-21T13:59:40;100305.00;;;15.30
16956;BMP180;8594;52.052;8.354;2023-03-21T14:02:31;100296.00;;;15.30
16956;BMP180;8594;52.052;8.354;2023-03-21T14:05:03;100288.00;;;15.20
16956;BMP180;8594;52.052;8.354;2023-03-21T14:07:39;100283.00;;;15.30
16956;BMP180;8594;52.052;8.354;2023-03-21T14:10:18;100288.00;;;15.10
16956;BMP180;8594;52.052;8.354;2023-03-21T14:12:46;100271.00;;;15.20
16956;BMP180;8594;52.052;8.354;2023-03-21T14:15:19;100281.00;;;15.30
16956;BMP180;8594;52.052;8.354;2023-03-21T14:17:54;100279.00;;;15.10
16956;BMP180;8594;52.052;8.354;2023-03-21T14:20:25;100277.00;;;15.10
16956;BMP180;8594;52.052;8.354;2023-03-21T14:22:54;100273.00;;;15.40
16956;BMP180;8594;52.052;8.354;2023-03-21T14:25:24;100275.00;;;15.30
16956;BMP180;8594;52.052;8.354;2023-03-21T14:27:54;100277.00;;;15.50
16956;BMP180;8594;52.052;8.354;2023-03-21T14:30:27;100275.00;;;15.10
16956;BMP180;8594;52.052;8.354;2023-03-21T14:32:57;100274.00;;;15.40
16956;BMP180;8594;52.052;8.354;2023-03-21T14:35:30;100278.00;;;15.60
16956;BMP180;8594;52.052;8.354;2023-03-21T14:38:03;100272.00;;;15.30